Time;durP1;ratioP1;P1;durP2;ratioP2;P2;SDS_P1;SDS_P2;PMS_P1;PMS_P2;Temp;Humidity;BMP_temperature;BMP_pressure;BME280_temperature;BME280_humidity;BME280_pressure;Samples;Min_cycle;Max_cycle;Signal;HPM_P1;HPM_P2
2024/03/27 00:01:31;;;;;;;5.38;2.35;;;;;;;9.20;80.41;98336.00;5033530;28;20041;-74
2024/03/27 00:03:56;;;;;;;5.18;2.55;;;;;;;9.09;81.43;98330.47;5023650;28;20030;-74
2024/03/27 00:06:22;;;;;;;6.05;3.05;;;;;;;9.13;81.14;98331.66;5007025;28;20489;-73
2024/03/27 00:08:47;;;;;;;6.75;2.65;;;;;;;9.15;81.45;98326.28;5006225;28;20034;-74
2024/03/27 00:11:13;;;;;;;6.00;2.60;;;;;;;9.23;80.62;98327.81;5020462;28;20122;-74
2024/03/27 00:13:38;;;;;;;8.70;3.63;;;;;;;9.22;80.89;98323.66;5036456;28;20100;-74
2024/03/27 00:16:04;;;;;;;6.25;2.75;;;;;;;9.10;81.85;98328.72;5006963;28;20044;-74
2024/03/27 00:18:30;;;;;;;6.57;2.90;;;;;;;9.13;82.23;98323.09;5006891;28;20036;-74
2024/03/27 00:20:55;;;;;;;5.25;2.65;;;;;;;9.19;81.76;98318.91;5019319;28;20042;-74
2024/03/27 00:23:21;;;;;;;8.85;3.78;;;;;;;9.19;80.27;98324.06;5004805;28;20033;-74
2024/03/27 00:25:55;;;;;;;6.68;2.58;;;;;;;9.20;81.38;98317.91;5029290;28;20057;-74
2024/03/27 00:28:21;;;;;;;6.47;2.70;;;;;;;9.10;81.43;98323.53;5018602;28;20030;-74
2024/03/27 00:30:46;;;;;;;5.57;2.53;;;;;;;9.10;81.68;98332.06;5003135;28;20046;-74
2024/03/27 00:33:14;;;;;;;6.78;2.70;;;;;;;9.03;82.11;98320.97;5005161;28;20053;-74
2024/03/27 00:35:40;;;;;;;4.47;2.70;;;;;;;8.99;82.93;98316.44;5010033;28;20409;-74
2024/03/27 00:38:05;;;;;;;4.97;2.30;;;;;;;8.93;84.05;98321.41;5007882;28;20025;-74
2024/03/27 00:40:31;;;;;;;8.18;2.67;;;;;;;8.88;84.66;98326.41;5003896;28;20123;-74
2024/03/27 00:42:56;;;;;;;6.05;2.97;;;;;;;8.85;84.89;98331.19;5007592;28;20041;-74
2024/03/27 00:45:22;;;;;;;4.10;2.63;;;;;;;8.84;85.51;98324.44;5009850;28;20033;-74
2024/03/27 00:47:48;;;;;;;5.32;2.60;;;;;;;8.82;86.05;98316.09;5022373;28;20715;-74
2024/03/27 00:50:13;;;;;;;7.20;2.92;;;;;;;8.79;86.65;98319.09;5026343;28;20615;-74
2024/03/27 00:52:39;;;;;;;4.53;2.75;;;;;;;8.79;86.36;98317.28;5012046;28;20033;-74
2024/03/27 00:55:04;;;;;;;5.10;2.90;;;;;;;8.79;86.31;98317.28;5007026;28;20575;-74
2024/03/27 00:57:30;;;;;;;6.50;2.90;;;;;;;8.87;85.68;98318.84;5008636;28;20116;-75
2024/03/27 00:59:58;;;;;;;5.80;2.65;;;;;;;8.83;85.56;98313.28;5020930;28;20038;-74
2024/03/27 01:02:23;;;;;;;9.63;3.92;;;;;;;8.85;84.64;98305.34;5021901;28;20048;-74
2024/03/27 01:04:49;;;;;;;9.52;3.90;;;;;;;8.86;84.49;98304.34;4991081;28;20424;-74
2024/03/27 01:07:15;;;;;;;7.55;3.78;;;;;;;8.89;83.83;98291.00;5020837;28;20042;-74
2024/03/27 01:09:41;;;;;;;8.38;3.65;;;;;;;8.87;84.26;98301.56;5002122;28;20034;-74
2024/03/27 01:12:07;;;;;;;5.95;3.13;;;;;;;8.82;84.18;98303.97;5003904;28;20040;-75
2024/03/27 01:14:32;;;;;;;6.32;3.15;;;;;;;8.76;85.45;98305.56;5002164;28;20044;-74
2024/03/27 01:16:58;;;;;;;7.20;3.72;;;;;;;8.87;84.49;98301.56;5008949;28;20030;-74
2024/03/27 01:19:24;;;;;;;7.72;3.50;;;;;;;8.97;83.75;98303.69;5010805;28;20025;-74
2024/03/27 01:21:50;;;;;;;6.90;3.60;;;;;;;8.94;83.86;98297.13;5008440;28;20042;-74
2024/03/27 01:24:15;;;;;;;12.90;3.90;;;;;;;8.85;84.13;98289.81;5022654;28;20520;-74
2024/03/27 01:26:40;;;;;;;10.32;4.22;;;;;;;8.96;83.60;98289.97;5009368;28;20037;-74
2024/03/27 01:29:06;;;;;;;10.85;4.15;;;;;;;8.93;83.21;98272.31;5010618;28;20034;-75
2024/03/27 01:31:31;;;;;;;10.70;4.20;;;;;;;8.94;84.02;98278.25;5025281;28;20040;-74
2024/03/27 01:33:57;;;;;;;12.65;4.63;;;;;;;8.90;83.86;98277.88;5008163;28;20041;-74
2024/03/27 01:36:22;;;;;;;11.63;4.50;;;;;;;8.95;84.18;98285.03;5007621;28;20080;-74
2024/03/27 01:38:49;;;;;;;11.65;4.07;;;;;;;8.95;82.96;98275.47;5008135;28;20033;-74
2024/03/27 01:41:15;;;;;;;14.90;4.50;;;;;;;8.89;83.84;98272.91;5006838;28;20038;-75
2024/03/27 01:43:40;;;;;;;8.43;3.83;;;;;;;8.84;84.32;98268.38;5038028;28;20048;-74
2024/03/27 01:46:09;;;;;;;10.32;4.60;;;;;;;8.81;85.12;98260.22;5010424;28;20603;-74
2024/03/27 01:48:35;;;;;;;11.38;4.70;;;;;;;8.80;84.82;98259.44;5022659;28;20038;-74
2024/03/27 01:51:01;;;;;;;8.90;4.40;;;;;;;8.63;86.06;98251.38;5024181;28;20122;-74
2024/03/27 01:53:29;;;;;;;8.88;4.78;;;;;;;8.56;87.01;98256.56;5008547;28;20060;-75
2024/03/27 01:55:55;;;;;;;14.10;4.75;;;;;;;8.56;87.59;98250.59;5039717;28;20046;-74
2024/03/27 01:58:21;;;;;;;10.63;4.40;;;;;;;8.53;88.22;98246.66;5006936;28;20164;-74
2024/03/27 02:00:46;;;;;;;8.27;4.20;;;;;;;8.51;88.11;98237.50;5004504;28;20057;-74
2024/03/27 02:03:12;;;;;;;9.70;4.57;;;;;;;8.46;88.79;98237.34;5011812;28;20097;-74
2024/03/27 02:05:37;;;;;;;10.15;4.82;;;;;;;8.39;88.95;98237.31;5005121;28;20049;-74
2024/03/27 02:08:03;;;;;;;9.15;4.40;;;;;;;8.38;89.45;98233.94;5007523;28;20030;-74
2024/03/27 02:10:30;;;;;;;9.20;5.47;;;;;;;8.39;89.48;98227.78;5007656;28;20052;-75
2024/03/27 02:12:55;;;;;;;9.77;4.68;;;;;;;8.34;89.00;98225.03;5010709;28;20033;-75
2024/03/27 02:15:20;;;;;;;11.80;4.95;;;;;;;8.39;88.88;98232.16;5002743;28;20026;-74
2024/03/27 02:17:46;;;;;;;10.93;4.90;;;;;;;8.47;88.49;98228.56;5009923;28;20045;-74
2024/03/27 02:20:11;;;;;;;14.63;5.72;;;;;;;8.39;88.58;98232.94;5025963;28;20037;-74
2024/03/27 02:22:37;;;;;;;7.13;4.85;;;;;;;8.37;88.79;98239.31;5023445;28;20040;-74
2024/03/27 02:25:17;;;;;;;10.15;5.00;;;;;;;8.31;89.32;98255.63;5023416;28;20025;-74
2024/03/27 02:27:44;;;;;;;11.48;4.72;;;;;;;8.23;89.77;98255.81;5020648;28;20556;-74
2024/03/27 02:30:10;;;;;;;10.43;4.82;;;;;;;8.20;90.33;98262.19;5028888;28;20034;-75
2024/03/27 02:32:35;;;;;;;8.65;5.13;;;;;;;8.18;90.78;98252.06;5020861;28;20405;-74
2024/03/27 02:35:01;;;;;;;10.07;4.22;;;;;;;8.13;91.36;98248.50;5019283;28;20033;-74
2024/03/27 02:37:26;;;;;;;9.55;4.45;;;;;;;8.10;91.86;98241.97;5035728;28;20036;-74
2024/03/27 02:39:52;;;;;;;9.07;4.60;;;;;;;8.08;92.22;98233.63;5002909;28;20045;-74
2024/03/27 02:42:17;;;;;;;8.35;4.57;;;;;;;8.06;92.69;98239.97;5012364;28;20048;-75
2024/03/27 02:44:42;;;;;;;8.52;5.35;;;;;;;8.01;92.84;98235.44;5023670;28;20034;-74
2024/03/27 02:47:08;;;;;;;8.52;4.40;;;;;;;7.98;93.23;98235.81;5021142;28;20046;-74
2024/03/27 02:49:33;;;;;;;7.85;4.55;;;;;;;7.96;93.50;98233.44;5007768;28;20038;-74
2024/03/27 02:51:59;;;;;;;10.60;4.82;;;;;;;7.93;94.02;98239.03;5004208;28;20060;-74
2024/03/27 02:54:24;;;;;;;7.45;4.30;;;;;;;7.92;94.15;98231.47;5021751;28;20096;-74
2024/03/27 02:56:50;;;;;;;7.80;4.40;;;;;;;7.89;94.84;98229.28;5005423;28;20069;-75
2024/03/27 02:59:16;;;;;;;12.75;4.88;;;;;;;7.84;94.97;98232.47;5023425;28;20038;-74
2024/03/27 03:01:41;;;;;;;8.10;4.63;;;;;;;7.83;95.36;98233.47;5021162;28;20030;-74
2024/03/27 03:04:07;;;;;;;7.20;4.50;;;;;;;7.80;95.84;98232.09;5038357;28;20157;-74
2024/03/27 03:06:33;;;;;;;8.90;4.55;;;;;;;7.79;96.73;98238.22;5018044;28;20828;-75
2024/03/27 03:08:58;;;;;;;8.27;5.03;;;;;;;7.79;96.73;98230.47;5021723;28;20045;-74
2024/03/27 03:11:24;;;;;;;8.48;4.85;;;;;;;7.79;97.25;98229.69;5021899;28;20049;-74
2024/03/27 03:13:49;;;;;;;9.57;4.80;;;;;;;7.78;97.38;98233.28;5005236;28;20042;-74
2024/03/27 03:16:14;;;;;;;10.27;4.78;;;;;;;7.77;97.01;98222.16;5018845;28;20030;-74
2024/03/27 03:18:40;;;;;;;9.23;5.03;;;;;;;7.79;96.89;98219.38;5010025;28;20034;-74
2024/03/27 03:21:05;;;;;;;9.10;5.38;;;;;;;7.87;96.59;98220.97;5006572;28;20049;-74
2024/03/27 03:23:31;;;;;;;10.07;5.03;;;;;;;7.85;96.48;98225.53;5006612;28;20048;-74
2024/03/27 03:25:57;;;;;;;9.80;5.30;;;;;;;7.79;96.50;98227.13;5006717;28;20038;-74
2024/03/27 03:28:23;;;;;;;9.35;5.03;;;;;;;7.73;97.02;98222.78;5023481;28;20511;-74
2024/03/27 03:30:49;;;;;;;9.70;4.72;;;;;;;7.73;97.55;98215.81;5018631;28;20038;-74
2024/03/27 03:33:14;;;;;;;11.43;5.40;;;;;;;7.72;97.49;98209.09;5005667;28;20392;-74
2024/03/27 03:35:40;;;;;;;11.63;5.10;;;;;;;7.71;98.02;98204.13;5006583;28;20038;-74
2024/03/27 03:38:05;;;;;;;11.57;4.88;;;;;;;7.70;98.14;98205.88;5022180;28;20041;-74
2024/03/27 03:40:53;;;;;;;10.77;6.18;;;;;;;7.72;98.59;98197.94;5005902;28;20026;-75
2024/03/27 03:43:19;;;;;;;9.40;5.70;;;;;;;7.74;98.63;98206.28;5006675;28;20029;-74
2024/03/27 03:45:44;;;;;;;10.98;4.93;;;;;;;7.75;98.37;98197.56;5007503;28;20416;-75
2024/03/27 03:48:10;;;;;;;10.00;5.28;;;;;;;7.74;98.62;98203.69;5008240;28;20042;-74
2024/03/27 03:50:36;;;;;;;11.25;4.75;;;;;;;7.82;98.45;98203.50;5006450;28;20042;-74
2024/03/27 03:53:02;;;;;;;11.30;5.53;;;;;;;7.78;98.74;98200.53;5006670;28;20038;-74
2024/03/27 03:55:27;;;;;;;7.47;4.53;;;;;;;7.75;99.33;98206.09;5039742;28;20057;-74
2024/03/27 03:57:53;;;;;;;11.05;5.18;;;;;;;7.74;100.00;98199.34;5022259;28;20034;-74
2024/03/27 04:00:20;;;;;;;7.80;4.60;;;;;;;7.75;100.00;98200.16;5036639;28;20069;-74
2024/03/27 04:02:47;;;;;;;14.38;5.65;;;;;;;7.75;100.00;98200.94;5007772;28;20485;-75
2024/03/27 04:05:12;;;;;;;10.93;5.60;;;;;;;7.73;100.00;98191.81;5022918;28;20036;-74
2024/03/27 04:07:38;;;;;;;9.82;4.90;;;;;;;7.71;100.00;98197.16;5022370;28;20647;-75
2024/03/27 04:10:03;;;;;;;11.98;4.75;;;;;;;7.70;100.00;98198.16;5007357;28;20045;-74
2024/03/27 04:12:30;;;;;;;9.88;5.55;;;;;;;7.70;100.00;98199.94;5006858;28;20548;-74
2024/03/27 04:14:55;;;;;;;11.32;4.95;;;;;;;7.71;100.00;98189.44;5007990;28;20033;-74
2024/03/27 04:17:20;;;;;;;8.05;4.70;;;;;;;7.71;100.00;98186.84;5010544;28;20029;-74
2024/03/27 04:19:46;;;;;;;9.40;4.90;;;;;;;7.71;100.00;98181.69;5023239;28;20038;-74
2024/03/27 04:22:11;;;;;;;10.32;5.10;;;;;;;7.72;100.00;98183.28;5023910;28;20042;-74
2024/03/27 04:24:37;;;;;;;10.90;5.90;;;;;;;7.75;100.00;98180.28;5023868;28;20029;-74
2024/03/27 04:27:03;;;;;;;8.93;4.78;;;;;;;7.74;100.00;98175.31;5021974;28;20050;-74
2024/03/27 04:29:30;;;;;;;12.63;5.07;;;;;;;7.68;100.00;98176.94;4992796;28;20034;-74
2024/03/27 04:31:55;;;;;;;10.90;5.13;;;;;;;7.66;100.00;98173.75;5008674;28;20068;-74
2024/03/27 04:34:21;;;;;;;12.20;4.90;;;;;;;7.65;100.00;98182.50;5011088;28;20072;-74
2024/03/27 04:36:46;;;;;;;12.55;4.93;;;;;;;7.67;100.00;98174.56;5009901;28;20026;-75
2024/03/27 04:39:11;;;;;;;11.25;4.68;;;;;;;7.67;100.00;98172.00;5010430;28;20038;-74
2024/03/27 04:41:37;;;;;;;11.13;5.10;;;;;;;7.70;100.00;98171.56;5025569;28;20048;-74
2024/03/27 04:44:03;;;;;;;9.38;5.25;;;;;;;7.69;100.00;98178.53;5011976;28;20392;-74
2024/03/27 04:46:29;;;;;;;8.45;4.90;;;;;;;7.67;100.00;98190.84;5024181;28;20034;-74
2024/03/27 04:48:54;;;;;;;8.57;5.60;;;;;;;7.65;100.00;98197.97;5010676;28;20032;-75
2024/03/27 04:51:20;;;;;;;13.43;5.10;;;;;;;7.63;100.00;98201.72;5007642;28;20037;-75
2024/03/27 04:53:45;;;;;;;10.48;4.30;;;;;;;7.63;100.00;98215.44;5009850;28;20052;-74
2024/03/27 04:56:10;;;;;;;8.38;5.35;;;;;;;7.69;100.00;98221.59;5009061;28;20038;-74
2024/03/27 04:58:36;;;;;;;10.43;5.03;;;;;;;7.64;100.00;98242.81;5020019;28;20038;-74
2024/03/27 05:01:01;;;;;;;10.43;4.75;;;;;;;7.63;100.00;98243.00;5022703;28;20037;-74
2024/03/27 05:03:27;;;;;;;10.07;4.35;;;;;;;7.63;100.00;98258.47;4995561;28;20026;-74
2024/03/27 05:05:52;;;;;;;15.13;4.85;;;;;;;7.64;100.00;98267.81;5007154;28;20497;-74
2024/03/27 05:08:18;;;;;;;9.73;5.15;;;;;;;7.64;100.00;98273.75;5024483;28;20037;-75
2024/03/27 05:10:43;;;;;;;9.05;4.60;;;;;;;7.65;100.00;98267.63;5005494;28;20054;-74
2024/03/27 05:13:08;;;;;;;9.50;4.97;;;;;;;7.66;100.00;98266.59;5024978;28;20045;-75
2024/03/27 05:15:34;;;;;;;8.05;4.50;;;;;;;7.72;100.00;98265.03;5009807;28;20048;-74
2024/03/27 05:17:59;;;;;;;7.85;4.32;;;;;;;7.74;100.00;98245.78;5024273;28;20030;-74
2024/03/27 05:20:26;;;;;;;14.23;4.40;;;;;;;7.79;100.00;98235.66;5002018;28;20030;-74
2024/03/27 05:22:51;;;;;;;11.93;4.07;;;;;;;7.88;100.00;98231.09;5025049;28;20038;-75
2024/03/27 05:25:17;;;;;;;7.88;3.28;;;;;;;8.03;100.00;98246.34;5024738;28;20029;-74
2024/03/27 05:27:43;;;;;;;7.07;2.80;;;;;;;8.08;100.00;98228.47;5022675;28;20096;-74
2024/03/27 05:30:09;;;;;;;5.65;2.70;;;;;;;8.20;100.00;98233.81;5023039;28;20034;-74
2024/03/27 05:32:34;;;;;;;5.05;2.35;;;;;;;8.25;100.00;98235.75;5004660;28;20038;-74
2024/03/27 05:34:59;;;;;;;6.22;2.38;;;;;;;8.26;100.00;98232.97;5021524;28;20044;-74
2024/03/27 05:37:25;;;;;;;5.43;2.15;;;;;;;8.30;100.00;98241.91;5034507;28;20073;-75
2024/03/27 05:39:50;;;;;;;8.50;2.25;;;;;;;8.31;100.00;98248.66;5021724;28;20034;-74
2024/03/27 05:42:16;;;;;;;5.00;1.95;;;;;;;8.43;100.00;98260.97;5008184;28;21110;-75
2024/03/27 05:44:41;;;;;;;3.00;2.00;;;;;;;8.43;100.00;98258.41;5008261;28;20037;-74
2024/03/27 05:47:07;;;;;;;4.97;1.98;;;;;;;8.51;100.00;98269.31;5008227;28;20034;-74
2024/03/27 05:49:33;;;;;;;8.27;2.00;;;;;;;8.43;100.00;98260.97;5007085;28;20030;-74
2024/03/27 05:51:58;;;;;;;5.65;1.67;;;;;;;8.53;100.00;98271.66;5022556;28;20093;-74
2024/03/27 05:54:23;;;;;;;2.92;1.65;;;;;;;8.55;100.00;98277.41;5007868;28;20045;-74
2024/03/27 05:56:49;;;;;;;2.83;1.70;;;;;;;8.65;100.00;98282.97;5006685;28;20034;-75
2024/03/27 05:59:15;;;;;;;2.45;1.30;;;;;;;8.70;100.00;98283.16;5006867;28;20044;-75
2024/03/27 06:01:40;;;;;;;2.65;1.40;;;;;;;8.70;100.00;98295.25;5008766;28;20052;-75
2024/03/27 06:04:06;;;;;;;1.92;1.10;;;;;;;8.64;100.00;98294.28;5007437;28;20424;-74
2024/03/27 06:06:31;;;;;;;1.92;1.48;;;;;;;8.58;100.00;98295.09;5005569;28;20034;-75
2024/03/27 06:08:56;;;;;;;1.88;1.15;;;;;;;8.53;100.00;98289.75;5023199;28;20030;-74
2024/03/27 06:11:23;;;;;;;3.70;1.20;;;;;;;8.50;100.00;98285.00;5004778;28;20092;-74
2024/03/27 06:13:49;;;;;;;2.20;1.02;;;;;;;8.49;100.00;98288.56;5007749;28;20033;-74
2024/03/27 06:16:15;;;;;;;2.10;1.30;;;;;;;8.52;100.00;98280.44;5004555;28;20069;-75
2024/03/27 06:18:44;;;;;;;4.38;1.02;;;;;;;8.53;100.00;98280.22;5007936;28;20026;-74
2024/03/27 06:21:09;;;;;;;1.75;1.08;;;;;;;8.51;100.00;98276.25;5021499;28;20034;-75
2024/03/27 06:23:36;;;;;;;2.88;1.20;;;;;;;8.62;100.00;98280.78;5008797;28;20077;-74
2024/03/27 06:26:03;;;;;;;3.38;1.15;;;;;;;8.73;100.00;98271.59;5006532;28;20042;-74
2024/03/27 06:28:28;;;;;;;1.40;0.90;;;;;;;8.67;100.00;98278.38;5006744;28;20057;-74
2024/03/27 06:30:58;;;;;;;3.22;1.15;;;;;;;8.64;100.00;98283.94;5020512;28;20038;-74
2024/03/27 06:33:24;;;;;;;1.60;1.10;;;;;;;8.56;100.00;98276.44;5006519;28;20045;-75
2024/03/27 06:35:51;;;;;;;3.63;1.10;;;;;;;8.67;100.00;98280.97;5005325;28;20057;-74
2024/03/27 06:38:17;;;;;;;2.22;1.20;;;;;;;8.65;100.00;98290.72;5006860;28;20036;-75
2024/03/27 06:40:42;;;;;;;3.75;1.20;;;;;;;8.61;100.00;98284.38;5020725;28;20042;-75
2024/03/27 06:43:09;;;;;;;2.25;1.30;;;;;;;8.60;100.00;98287.94;5023479;28;20037;-74
2024/03/27 06:45:37;;;;;;;3.08;1.80;;;;;;;8.63;100.00;98290.13;5025102;28;20041;-74
2024/03/27 06:48:05;;;;;;;4.63;2.28;;;;;;;8.62;100.00;98300.66;5025134;28;20116;-75
2024/03/27 06:50:30;;;;;;;6.25;2.70;;;;;;;8.61;100.00;98310.19;5020194;28;20485;-74
2024/03/27 06:52:56;;;;;;;5.53;2.70;;;;;;;8.65;100.00;98310.59;5021933;28;20030;-74
2024/03/27 06:55:21;;;;;;;4.05;2.53;;;;;;;8.64;100.00;98320.09;5003618;28;20374;-75
2024/03/27 06:57:47;;;;;;;4.88;2.15;;;;;;;8.80;100.00;98324.06;5020529;28;20113;-75
2024/03/27 07:00:14;;;;;;;5.35;1.80;;;;;;;8.74;100.00;98332.63;5004239;28;20396;-74
2024/03/27 07:02:40;;;;;;;6.18;3.30;;;;;;;8.96;100.00;98346.03;5035976;28;20116;-74
2024/03/27 07:05:07;;;;;;;5.55;2.70;;;;;;;8.83;100.00;98352.03;5005219;28;20684;-74
2024/03/27 07:07:33;;;;;;;3.60;2.20;;;;;;;8.80;100.00;98356.81;5005181;28;20041;-74
2024/03/27 07:09:58;;;;;;;8.32;4.03;;;;;;;8.84;100.00;98352.88;5022994;28;20034;-74
2024/03/27 07:12:24;;;;;;;5.15;2.65;;;;;;;8.94;99.71;98360.97;5004590;28;20104;-74
2024/03/27 07:14:50;;;;;;;4.15;2.17;;;;;;;8.81;99.53;98356.63;5007469;28;20042;-74
2024/03/27 07:17:17;;;;;;;5.80;3.90;;;;;;;8.80;100.00;98362.00;5005815;28;20030;-74
2024/03/27 07:19:49;;;;;;;9.75;3.33;;;;;;;8.83;100.00;98359.81;5006300;28;20056;-74
2024/03/27 07:22:15;;;;;;;8.38;5.20;;;;;;;8.87;100.00;98352.44;5019929;28;20065;-74
2024/03/27 07:24:40;;;;;;;7.18;2.50;;;;;;;8.81;100.00;98354.03;4990419;28;20133;-74
2024/03/27 07:27:06;;;;;;;4.95;2.47;;;;;;;8.70;100.00;98368.41;5007082;28;20095;-74
2024/03/27 07:29:32;;;;;;;4.78;2.47;;;;;;;8.81;100.00;98366.97;5012147;28;20030;-74
2024/03/27 07:31:57;;;;;;;5.85;2.97;;;;;;;8.71;100.00;98364.03;5021226;28;20493;-74
2024/03/27 07:34:23;;;;;;;5.68;2.85;;;;;;;8.81;100.00;98366.19;5000664;28;20317;-74
2024/03/27 07:36:48;;;;;;;5.55;2.33;;;;;;;8.87;100.00;98360.19;5017572;28;20038;-75
2024/03/27 07:39:14;;;;;;;6.22;2.35;;;;;;;8.81;100.00;98364.38;5023087;28;20040;-74
2024/03/27 07:41:39;;;;;;;6.47;2.58;;;;;;;8.77;100.00;98365.78;5023374;28;20513;-75
2024/03/27 07:44:05;;;;;;;4.72;2.40;;;;;;;8.77;100.00;98352.88;5012610;28;20026;-74
2024/03/27 07:46:30;;;;;;;5.50;2.40;;;;;;;8.87;100.00;98348.09;5009180;28;20053;-74
2024/03/27 07:48:55;;;;;;;7.97;2.53;;;;;;;8.96;100.00;98348.63;5007811;28;20060;-74
2024/03/27 07:51:21;;;;;;;6.53;2.60;;;;;;;9.01;100.00;98341.06;5023444;28;20042;-75
2024/03/27 07:53:48;;;;;;;5.10;2.70;;;;;;;9.10;100.00;98342.41;5011486;28;20026;-74
2024/03/27 07:56:13;;;;;;;4.97;2.38;;;;;;;9.19;100.00;98340.38;5042058;28;20076;-73
2024/03/27 07:58:39;;;;;;;6.10;2.58;;;;;;;9.48;100.00;98349.38;5030624;28;20025;-74
2024/03/27 08:01:04;;;;;;;5.88;4.30;;;;;;;9.57;100.00;98343.94;5007107;28;20134;-74
2024/03/27 08:03:30;;;;;;;5.40;2.60;;;;;;;9.45;100.00;98357.53;5009738;28;20029;-74
2024/03/27 08:05:57;;;;;;;5.57;2.63;;;;;;;9.45;100.00;98364.50;5024006;28;20038;-74
2024/03/27 08:08:22;;;;;;;4.40;2.30;;;;;;;9.49;100.00;98356.16;5009009;28;20493;-74
2024/03/27 08:10:58;;;;;;;4.72;2.97;;;;;;;9.63;100.00;98348.31;5028203;28;20045;-74
2024/03/27 08:13:23;;;;;;;4.03;2.70;;;;;;;9.72;100.00;98357.41;5039523;28;20449;-75
2024/03/27 08:15:49;;;;;;;4.50;2.58;;;;;;;9.78;100.00;98350.59;5007829;28;20072;-74
2024/03/27 08:18:14;;;;;;;4.22;2.78;;;;;;;9.83;100.00;98353.31;5030065;28;20022;-74
2024/03/27 08:20:40;;;;;;;3.55;2.53;;;;;;;9.83;100.00;98374.84;5012442;28;20049;-75
2024/03/27 08:23:06;;;;;;;4.70;2.80;;;;;;;9.78;100.00;98379.06;5036071;28;20038;-74
2024/03/27 08:25:33;;;;;;;5.72;2.55;;;;;;;9.77;99.55;98367.91;5015092;28;20030;-74
2024/03/27 08:28:01;;;;;;;5.55;2.72;;;;;;;9.74;100.00;98378.69;5011764;28;20038;-75
2024/03/27 08:30:27;;;;;;;5.18;3.50;;;;;;;9.75;100.00;98382.84;5010165;28;20033;-74
2024/03/27 08:32:52;;;;;;;4.20;2.80;;;;;;;9.68;100.00;98382.09;5011354;28;20038;-74
2024/03/27 08:35:18;;;;;;;5.82;2.92;;;;;;;9.63;100.00;98374.97;5023898;28;20038;-74
2024/03/27 08:37:44;;;;;;;4.40;2.92;;;;;;;9.59;100.00;98376.38;5007533;28;20045;-74
2024/03/27 08:40:12;;;;;;;4.32;3.00;;;;;;;9.78;99.88;98374.69;5025008;28;20041;-74
2024/03/27 08:42:37;;;;;;;6.70;3.33;;;;;;;9.74;99.98;98374.28;5025453;28;20053;-74
2024/03/27 08:45:04;;;;;;;5.57;3.58;;;;;;;9.74;99.81;98378.69;5009196;28;20033;-74
2024/03/27 08:47:30;;;;;;;6.18;4.07;;;;;;;9.61;100.00;98376.97;5008415;28;20057;-75
2024/03/27 08:49:56;;;;;;;4.50;3.20;;;;;;;9.82;100.00;98383.59;5026017;28;20112;-74
2024/03/27 08:52:21;;;;;;;4.38;3.28;;;;;;;9.69;100.00;98381.88;5020278;28;20041;-75
2024/03/27 08:54:47;;;;;;;4.85;3.03;;;;;;;9.87;100.00;98391.53;5021777;28;20041;-74
2024/03/27 08:57:12;;;;;;;4.05;2.78;;;;;;;9.81;100.00;98399.34;5006458;28;20044;-74
2024/03/27 08:59:38;;;;;;;7.13;3.67;;;;;;;9.80;100.00;98397.75;5008807;28;20100;-74
2024/03/27 09:02:03;;;;;;;4.22;3.20;;;;;;;9.70;100.00;98396.41;5011862;28;20185;-74
2024/03/27 09:04:29;;;;;;;6.10;3.40;;;;;;;9.64;100.00;98405.00;5010516;28;20031;-74
2024/03/27 09:06:54;;;;;;;5.30;3.67;;;;;;;9.65;100.00;98404.00;5025361;28;20034;-74
2024/03/27 09:09:19;;;;;;;6.03;3.85;;;;;;;9.79;100.00;98406.50;5006963;28;20026;-74
2024/03/27 09:11:45;;;;;;;6.10;3.53;;;;;;;9.81;100.00;98410.47;5038976;28;20033;-75
2024/03/27 09:14:10;;;;;;;9.48;5.63;;;;;;;9.87;100.00;98406.25;5013084;28;20072;-74
2024/03/27 09:16:36;;;;;;;13.23;6.70;;;;;;;9.94;100.00;98402.66;5014331;28;20037;-75
2024/03/27 09:19:01;;;;;;;17.90;9.98;;;;;;;9.96;100.00;98407.59;5010333;28;20038;-75
2024/03/27 09:21:27;;;;;;;8.52;5.90;;;;;;;9.97;100.00;98409.19;5025287;28;20034;-74
2024/03/27 09:23:52;;;;;;;5.82;4.55;;;;;;;10.01;100.00;98412.94;5006425;28;20083;-75
2024/03/27 09:26:18;;;;;;;10.40;6.40;;;;;;;10.03;100.00;98410.94;5009132;28;21246;-74
2024/03/27 09:28:43;;;;;;;17.08;10.75;;;;;;;9.93;100.00;98419.16;5022769;28;20496;-74
2024/03/27 09:31:09;;;;;;;25.55;14.63;;;;;;;9.89;100.00;98425.78;5009806;28;20042;-74
2024/03/27 09:33:34;;;;;;;27.40;15.43;;;;;;;9.81;100.00;98426.00;5025220;28;20033;-74
2024/03/27 09:36:00;;;;;;;14.43;9.18;;;;;;;9.81;100.00;98420.81;5014419;28;20034;-75
2024/03/27 09:38:26;;;;;;;12.25;7.47;;;;;;;9.81;100.00;98428.59;5006332;28;20023;-74
2024/03/27 09:40:56;;;;;;;12.40;8.05;;;;;;;9.86;100.00;98426.19;5009061;28;20650;-74
2024/03/27 09:43:22;;;;;;;8.85;6.22;;;;;;;9.79;100.00;98417.66;5026822;28;20031;-74
2024/03/27 09:45:48;;;;;;;7.97;5.93;;;;;;;9.80;100.00;98427.03;5007400;28;20068;-75
2024/03/27 09:48:15;;;;;;;6.55;4.28;;;;;;;9.80;100.00;98431.41;5030389;28;20037;-74
2024/03/27 09:50:41;;;;;;;7.50;4.00;;;;;;;9.70;100.00;98424.06;5024322;28;20408;-74
2024/03/27 09:53:07;;;;;;;7.05;4.82;;;;;;;9.63;100.00;98425.94;5009404;28;20030;-75
2024/03/27 09:55:35;;;;;;;7.97;5.25;;;;;;;9.59;100.00;98427.31;5013002;28;20045;-74
2024/03/27 09:58:15;;;;;;;8.10;5.25;;;;;;;9.68;100.00;98419.13;5011216;28;20049;-74
2024/03/27 10:00:41;;;;;;;7.80;4.45;;;;;;;9.52;100.00;98420.38;4995176;28;20038;-75
2024/03/27 10:03:07;;;;;;;6.38;4.53;;;;;;;9.52;100.00;98415.22;5010712;28;20018;-74
2024/03/27 10:05:33;;;;;;;7.03;4.38;;;;;;;9.34;100.00;98415.91;5007281;28;20049;-75
2024/03/27 10:07:59;;;;;;;7.72;5.80;;;;;;;9.45;100.00;98409.28;5011394;28;20034;-75
2024/03/27 10:10:25;;;;;;;10.52;7.45;;;;;;;9.25;100.00;98414.56;5005985;28;20535;-74
2024/03/27 10:12:52;;;;;;;14.52;9.68;;;;;;;9.38;100.00;98415.47;5031211;28;20148;-74
2024/03/27 10:15:18;;;;;;;9.88;7.40;;;;;;;9.31;100.00;98410.34;5021932;28;20045;-75
2024/03/27 10:17:43;;;;;;;11.82;7.80;;;;;;;9.32;100.00;98411.94;5022380;28;20092;-75
2024/03/27 10:20:10;;;;;;;12.70;6.93;;;;;;;9.29;100.00;98420.91;5009634;28;20940;-74
2024/03/27 10:22:39;;;;;;;15.45;10.32;;;;;;;9.29;100.00;98420.13;5011891;28;20100;-74
2024/03/27 10:25:07;;;;;;;14.43;9.02;;;;;;;9.23;100.00;98416.56;5004900;28;20157;-75
2024/03/27 10:27:34;;;;;;;19.20;10.18;;;;;;;9.24;100.00;98422.50;4988567;28;20033;-74
2024/03/27 10:30:00;;;;;;;15.52;9.25;;;;;;;9.13;100.00;98435.06;5024762;28;20030;-75
2024/03/27 10:32:26;;;;;;;15.15;8.13;;;;;;;9.18;100.00;98434.47;5023251;28;20567;-74
2024/03/27 10:34:51;;;;;;;18.90;10.68;;;;;;;9.18;100.00;98444.81;5008429;28;20030;-74
2024/03/27 10:37:18;;;;;;;20.08;10.05;;;;;;;9.15;100.00;98440.84;5006910;28;20030;-74
2024/03/27 10:39:49;;;;;;;34.42;15.88;;;;;;;9.38;100.00;98449.91;5010095;28;20030;-75
2024/03/27 10:42:24;;;;;;;34.10;15.35;;;;;;;9.37;100.00;98452.72;5022084;28;20167;-75
2024/03/27 10:44:54;;;;;;;25.30;17.50;;;;;;;9.32;100.00;98466.25;5025535;28;20033;-74
2024/03/27 10:47:22;;;;;;;13.52;9.30;;;;;;;9.24;100.00;98463.88;5011214;28;20037;-75
2024/03/27 10:49:50;;;;;;;11.32;7.82;;;;;;;9.18;100.00;98468.09;5035741;28;20034;-75
2024/03/27 10:52:17;;;;;;;11.10;7.70;;;;;;;9.30;100.00;98468.25;5008388;28;20060;-75
2024/03/27 10:54:44;;;;;;;13.40;8.13;;;;;;;9.28;100.00;98475.41;5020715;28;20398;-75
2024/03/27 10:57:12;;;;;;;11.68;7.93;;;;;;;9.25;100.00;98475.81;5008682;28;20044;-75
2024/03/27 10:59:40;;;;;;;12.98;8.57;;;;;;;9.32;100.00;98479.97;5005314;28;20547;-75
2024/03/27 11:02:11;;;;;;;13.15;9.10;;;;;;;9.09;100.00;98484.81;5015227;28;20037;-75
2024/03/27 11:04:42;;;;;;;15.75;8.80;;;;;;;9.16;100.00;98478.63;5036563;28;20120;-75
2024/03/27 11:07:08;;;;;;;12.32;8.35;;;;;;;9.23;100.00;98482.97;5026091;28;20034;-75
2024/03/27 11:09:34;;;;;;;10.95;6.78;;;;;;;9.18;100.00;98491.34;5006652;28;20030;-75
2024/03/27 11:12:04;;;;;;;9.65;6.32;;;;;;;9.11;100.00;98501.69;5003766;28;20034;-75
2024/03/27 11:14:36;;;;;;;9.38;6.45;;;;;;;9.06;100.00;98498.13;5035854;28;20137;-74
2024/03/27 11:17:02;;;;;;;10.88;8.18;;;;;;;9.09;100.00;98503.69;5022786;28;20038;-75
2024/03/27 11:19:38;;;;;;;13.45;8.82;;;;;;;9.01;100.00;98501.31;5023863;28;20044;-75
2024/03/27 11:22:10;;;;;;;12.68;7.35;;;;;;;9.10;100.00;98504.50;5020912;28;20045;-75
2024/03/27 11:24:36;;;;;;;21.33;11.35;;;;;;;9.19;100.00;98507.66;5017027;28;20043;-75
2024/03/27 11:27:02;;;;;;;9.23;6.40;;;;;;;9.13;100.00;98502.28;5009453;28;20114;-75
2024/03/27 11:29:29;;;;;;;14.05;8.00;;;;;;;9.13;100.00;98501.50;5005918;28;20044;-75